This is the latest recevied weather packets stored in our database for station/object N6OL. If no packets are shown the sender has not sent any weather packets the latest 10 day(s).
| Time | Temp. | Humidity | Pressure | Rain* | Wind** | Luminosity | Snow |
|---|---|---|---|---|---|---|---|
| 1777418403 | 18.33° C | 65% | 1017.9 hPa | 0 mm | - | 575 W/m² | - |
| 1777417503 | 18.33° C | 63% | 1017.7 hPa | 0 mm | - | 612 W/m² | - |
| 1777415103 | 18.89° C | 64% | 1017.9 hPa | 0 mm | - | 712 W/m² | - |
| 1777408803 | 18.33° C | 65% | 1019.4 hPa | 0 mm | - | 819 W/m² | - |
| 1777408503 | 18.33° C | 66% | 1019.4 hPa | 0 mm | - | 819 W/m² | - |
| 1777408224 | 17.78° C | 66% | 1019.4 hPa | 0 mm | - | 821 W/m² | - |
| 1777406403 | 17.22° C | 67% | 1019.5 hPa | 0 mm | - | 823 W/m² | - |
| 1777405203 | 17.22° C | 67% | 1019.8 hPa | 0 mm | - | 814 W/m² | - |
| 1777403724 | 16.67° C | 68% | 1020 hPa | 0 mm | - | 796 W/m² | - |
| 1777402803 | 16.11° C | 68% | 1020.2 hPa | 0 mm | - | 777 W/m² | - |
| 1777402503 | 16.11° C | 69% | 1020.2 hPa | 0 mm | - | 773 W/m² | - |
| 1777402203 | 16.11° C | 69% | 1020.2 hPa | 0 mm | - | 766 W/m² | - |
| 1777401603 | 16.67° C | 68% | 1020.3 hPa | 0 mm | - | 754 W/m² | - |
| 1777401303 | 16.67° C | 67% | 1020.4 hPa | 0 mm | - | 745 W/m² | - |
| 1777399803 | 16.67° C | 67% | 1020.3 hPa | 0 mm | - | 708 W/m² | - |
| 1777399203 | 16.11° C | 68% | 1020.4 hPa | 0 mm | - | 689 W/m² | - |
| 1777398903 | 15.56° C | 69% | 1020.3 hPa | 0 mm | - | 679 W/m² | - |
| 1777397703 | 15.56° C | 70% | 1020.3 hPa | 0 mm | - | 635 W/m² | - |
| 1777395903 | 15.56° C | 69% | 1020.2 hPa | 0 mm | - | 570 W/m² | - |
| 1777395024 | 15.56° C | 70% | 1020.1 hPa | 0 mm | - | 533 W/m² | - |
| 1777390203 | 13.89° C | 74% | 1020 hPa | 0 mm | - | 308 W/m² | - |
* Rain latest hour (hover to see other rain measurements)
** Current wind speed in m/s (hover to see current wind gust speed)